createdAt,value
2018-06-16T00:01:09.563Z,18.90
2018-06-16T00:03:37.807Z,18.90
2018-06-16T00:06:06.076Z,18.80
2018-06-16T00:08:34.344Z,18.90
2018-06-16T00:11:02.628Z,18.90
2018-06-16T00:13:30.870Z,18.90
2018-06-16T00:15:59.136Z,18.90
2018-06-16T00:18:27.402Z,18.90
2018-06-16T00:20:57.341Z,18.80
2018-06-16T00:23:25.663Z,18.80
2018-06-16T00:25:54.673Z,18.30
2018-06-16T00:28:22.944Z,18.20
2018-06-16T00:30:51.967Z,18.20
2018-06-16T00:33:20.217Z,18.20
2018-06-16T00:35:48.503Z,18.30
2018-06-16T00:38:16.835Z,18.40
2018-06-16T00:40:45.090Z,18.30
2018-06-16T00:43:13.497Z,18.40
2018-06-16T00:45:42.507Z,18.40
2018-06-16T00:48:10.807Z,18.40
2018-06-16T00:50:39.895Z,18.60
2018-06-16T00:53:08.151Z,18.60
2018-06-16T00:55:37.172Z,18.50
2018-06-16T00:58:05.440Z,18.50
2018-06-16T01:00:33.693Z,18.60
2018-06-16T01:03:02.193Z,18.40
2018-06-16T01:05:30.452Z,18.30
2018-06-16T01:07:59.471Z,18.20
2018-06-16T01:10:27.732Z,18.20
2018-06-16T01:12:55.975Z,18.00
2018-06-16T01:15:25.015Z,18.10
2018-06-16T01:17:53.283Z,18.10
2018-06-16T01:20:21.547Z,18.20
2018-06-16T01:22:49.791Z,18.30
2018-06-16T01:25:18.805Z,18.40
2018-06-16T01:27:47.078Z,18.30
2018-06-16T01:30:15.324Z,18.40
2018-06-16T01:32:43.699Z,18.30
2018-06-16T01:35:11.960Z,18.30
2018-06-16T01:37:40.204Z,18.30
2018-06-16T01:40:08.474Z,18.30
2018-06-16T01:42:37.497Z,18.30
2018-06-16T01:45:05.765Z,18.20
2018-06-16T01:47:34.020Z,18.10
2018-06-16T01:50:02.490Z,18.00
2018-06-16T01:52:30.726Z,18.00
2018-06-16T01:54:59.750Z,17.80
2018-06-16T01:57:28.011Z,17.80
2018-06-16T01:59:57.043Z,17.70
2018-06-16T02:02:25.438Z,17.70
2018-06-16T02:04:53.711Z,17.70
2018-06-16T02:07:21.961Z,17.80
2018-06-16T02:09:50.267Z,17.70
2018-06-16T02:12:18.529Z,17.60
2018-06-16T02:14:46.799Z,17.70
2018-06-16T02:17:15.069Z,17.70
2018-06-16T02:19:43.358Z,17.60
2018-06-16T02:22:11.624Z,17.50
2018-06-16T02:24:39.891Z,17.30
2018-06-16T02:27:08.127Z,17.40
2018-06-16T02:29:37.147Z,17.50
2018-06-16T02:32:05.399Z,17.40
2018-06-16T02:34:34.440Z,17.50
2018-06-16T02:37:02.679Z,17.50
2018-06-16T02:39:31.063Z,17.50
2018-06-16T02:41:59.309Z,17.60
2018-06-16T02:44:28.332Z,17.60
2018-06-16T02:46:56.602Z,17.60
2018-06-16T02:49:24.846Z,17.70
2018-06-16T02:51:53.121Z,17.80
2018-06-16T02:54:21.365Z,17.70
2018-06-16T02:56:49.645Z,17.70
2018-06-16T02:59:18.856Z,17.80
2018-06-16T03:01:47.107Z,17.70
2018-06-16T03:04:15.958Z,17.70
2018-06-16T03:06:44.971Z,17.80
2018-06-16T03:09:13.241Z,17.80
2018-06-16T03:11:42.424Z,17.80
2018-06-16T03:14:10.671Z,17.80
2018-06-16T03:16:39.715Z,17.90
2018-06-16T03:19:07.985Z,17.90
2018-06-16T03:21:36.254Z,18.00
2018-06-16T03:24:04.502Z,18.20
2018-06-16T03:26:33.712Z,18.30
2018-06-16T03:29:01.977Z,18.20
2018-06-16T03:31:31.137Z,18.30
2018-06-16T03:33:59.406Z,18.30
2018-06-16T03:36:27.682Z,18.30
2018-06-16T03:38:55.947Z,18.30
2018-06-16T03:41:24.213Z,18.50
2018-06-16T03:43:52.472Z,18.60
2018-06-16T03:46:20.736Z,18.60
2018-06-16T03:48:49.008Z,18.60
2018-06-16T03:51:17.371Z,18.50
2018-06-16T03:53:46.584Z,18.20
2018-06-16T03:56:14.837Z,18.20
2018-06-16T03:58:43.854Z,18.10
2018-06-16T04:01:12.131Z,18.10
2018-06-16T04:03:40.444Z,18.00
2018-06-16T04:06:08.703Z,17.80
2018-06-16T04:08:36.988Z,17.80
2018-06-16T04:11:05.234Z,17.80
2018-06-16T04:13:33.725Z,17.90
2018-06-16T04:16:01.972Z,17.90
2018-06-16T04:18:30.998Z,17.80
2018-06-16T04:20:59.275Z,17.80
2018-06-16T04:23:27.529Z,18.00
2018-06-16T04:25:55.793Z,18.00
2018-06-16T04:28:24.069Z,18.10
2018-06-16T04:30:52.335Z,18.20
2018-06-16T04:33:21.423Z,18.30
2018-06-16T04:35:49.729Z,18.20
2018-06-16T04:38:18.303Z,18.30
2018-06-16T04:40:46.567Z,18.30
2018-06-16T04:43:15.594Z,18.50
2018-06-16T04:45:43.931Z,18.50
2018-06-16T04:48:12.119Z,18.60
2018-06-16T04:50:40.389Z,18.80
2018-06-16T04:53:08.657Z,18.80
2018-06-16T04:55:37.686Z,18.90
2018-06-16T04:58:06.097Z,18.80
2018-06-16T05:00:34.355Z,18.90
2018-06-16T05:03:03.517Z,18.90
2018-06-16T05:05:31.800Z,18.90
2018-06-16T05:08:00.041Z,19.00
2018-06-16T05:10:29.075Z,19.00
2018-06-16T05:12:57.346Z,19.00
2018-06-16T05:15:25.628Z,19.10
2018-06-16T05:17:53.894Z,19.20
2018-06-16T05:20:22.157Z,19.20
2018-06-16T05:22:50.424Z,19.30
2018-06-16T05:25:18.683Z,19.30
2018-06-16T05:27:47.718Z,19.30
2018-06-16T05:30:15.975Z,19.30
2018-06-16T05:32:44.250Z,19.40
2018-06-16T05:35:12.521Z,19.50
2018-06-16T05:37:41.025Z,19.50
2018-06-16T05:40:09.338Z,19.40
2018-06-16T05:42:37.594Z,19.50
2018-06-16T05:45:05.971Z,19.60
2018-06-16T05:47:34.227Z,19.60
2018-06-16T05:50:03.243Z,19.50
2018-06-16T05:52:31.512Z,19.50
2018-06-16T05:54:59.783Z,19.60
2018-06-16T05:57:28.065Z,19.60
2018-06-16T05:59:56.318Z,19.70
2018-06-16T06:02:24.581Z,19.80
2018-06-16T06:04:52.863Z,19.70
2018-06-16T06:07:21.132Z,19.80
2018-06-16T06:09:49.409Z,19.80
2018-06-16T06:12:17.674Z,19.90
2018-06-16T06:14:45.941Z,19.90
2018-06-16T06:17:14.981Z,19.90
2018-06-16T06:19:43.262Z,19.90
2018-06-16T06:22:12.039Z,20.10
2018-06-16T06:24:41.065Z,20.20
2018-06-16T06:27:09.329Z,20.20
2018-06-16T06:29:37.590Z,20.30
2018-06-16T06:32:05.881Z,20.30
2018-06-16T06:34:34.150Z,20.30
2018-06-16T06:37:02.406Z,20.40
2018-06-16T06:39:30.695Z,20.40
2018-06-16T06:41:58.951Z,20.50
2018-06-16T06:44:27.210Z,20.50
2018-06-16T06:46:55.674Z,20.50
2018-06-16T06:49:23.939Z,20.50
2018-06-16T06:51:52.954Z,20.70
2018-06-16T06:54:21.371Z,20.70
2018-06-16T06:56:49.643Z,20.70
2018-06-16T06:59:17.896Z,20.80
2018-06-16T07:01:46.172Z,20.80
2018-06-16T07:04:14.423Z,21.00
2018-06-16T07:06:42.712Z,21.00
2018-06-16T07:09:10.971Z,21.10
2018-06-16T07:11:39.248Z,21.20
2018-06-16T07:14:07.508Z,21.40
2018-06-16T07:16:36.528Z,21.70
2018-06-16T07:19:04.795Z,21.70
2018-06-16T07:21:33.038Z,22.00
2018-06-16T07:24:01.299Z,22.20
2018-06-16T07:26:29.558Z,21.90
2018-06-16T07:28:57.827Z,21.80
2018-06-16T07:31:26.070Z,22.00
2018-06-16T07:33:54.325Z,22.00
2018-06-16T07:36:23.364Z,21.90
2018-06-16T07:38:51.679Z,21.90
2018-06-16T07:41:19.887Z,22.00
2018-06-16T07:43:48.151Z,22.10
2018-06-16T07:46:16.417Z,22.20
2018-06-16T07:48:45.489Z,22.20
2018-06-16T07:51:13.739Z,22.20
2018-06-16T07:53:42.189Z,22.20
2018-06-16T07:56:10.434Z,22.30
2018-06-16T07:58:38.675Z,22.40
2018-06-16T08:01:06.941Z,22.50
2018-06-16T08:03:35.187Z,22.70
2018-06-16T08:06:03.427Z,22.80
2018-06-16T08:08:32.459Z,22.70
2018-06-16T08:11:00.749Z,22.70
2018-06-16T08:13:29.011Z,22.80
2018-06-16T08:15:57.278Z,22.90
2018-06-16T08:18:25.724Z,23.10
2018-06-16T08:20:53.943Z,23.10
2018-06-16T08:23:22.200Z,23.30
2018-06-16T08:25:50.454Z,23.70
2018-06-16T08:28:19.488Z,23.70
2018-06-16T08:30:47.739Z,23.70
2018-06-16T08:33:15.993Z,23.70
2018-06-16T08:35:45.027Z,24.10
2018-06-16T08:38:13.271Z,24.10
2018-06-16T08:40:42.332Z,24.70
2018-06-16T08:43:10.613Z,24.70
2018-06-16T08:45:38.854Z,24.60
2018-06-16T08:48:07.098Z,24.60
2018-06-16T08:50:36.141Z,25.20
2018-06-16T08:53:04.405Z,25.10
2018-06-16T08:55:32.711Z,25.30
2018-06-16T08:58:00.945Z,25.60
2018-06-16T09:00:29.435Z,25.70
2018-06-16T09:02:57.908Z,25.70
2018-06-16T09:05:26.170Z,25.70
2018-06-16T09:07:54.432Z,25.80
2018-06-16T09:10:23.211Z,25.70
2018-06-16T09:12:51.463Z,25.70
2018-06-16T09:15:19.710Z,25.70
2018-06-16T09:17:48.259Z,25.80
2018-06-16T09:20:16.507Z,26.10
2018-06-16T09:22:45.532Z,26.00
2018-06-16T09:25:13.877Z,26.00
2018-06-16T09:27:42.921Z,26.20
2018-06-16T09:30:11.173Z,26.20
2018-06-16T09:32:39.411Z,26.20
2018-06-16T09:35:08.439Z,26.10
2018-06-16T09:37:36.701Z,26.10
2018-06-16T09:40:04.953Z,26.10
2018-06-16T09:42:34.045Z,26.30
2018-06-16T09:45:02.273Z,26.20
2018-06-16T09:47:30.518Z,26.10
2018-06-16T09:49:58.770Z,26.10
2018-06-16T09:52:27.026Z,26.00
2018-06-16T09:54:55.275Z,26.00
2018-06-16T09:57:23.545Z,25.90
2018-06-16T09:59:51.816Z,26.10
2018-06-16T10:02:20.093Z,26.20
2018-06-16T10:04:48.370Z,26.50
2018-06-16T10:07:17.455Z,26.70
2018-06-16T10:09:45.698Z,26.80
2018-06-16T10:12:14.735Z,27.00
2018-06-16T10:14:42.991Z,27.00
2018-06-16T10:17:12.265Z,27.00
2018-06-16T10:19:41.277Z,26.70
2018-06-16T10:22:09.526Z,26.60
2018-06-16T10:24:38.556Z,26.10
2018-06-16T10:27:06.856Z,26.00
2018-06-16T10:29:35.118Z,26.20
2018-06-16T10:32:03.402Z,26.40
2018-06-16T10:34:31.640Z,26.70
2018-06-16T10:36:59.900Z,26.90
2018-06-16T10:39:28.939Z,27.00
2018-06-16T10:41:57.189Z,27.00
2018-06-16T10:44:25.461Z,27.20
2018-06-16T10:46:53.711Z,27.20
2018-06-16T10:49:22.717Z,27.70
2018-06-16T10:51:51.794Z,27.60
2018-06-16T10:54:20.004Z,27.60
2018-06-16T10:56:48.303Z,27.50
2018-06-16T10:59:16.560Z,27.70
2018-06-16T11:01:44.996Z,27.80
2018-06-16T11:04:14.006Z,27.50
2018-06-16T11:06:42.271Z,27.50
2018-06-16T11:09:11.324Z,27.80
2018-06-16T11:11:39.547Z,27.70
2018-06-16T11:14:08.572Z,27.40
2018-06-16T11:16:36.844Z,27.40
2018-06-16T11:19:05.157Z,27.30
2018-06-16T11:21:33.355Z,27.40
2018-06-16T11:24:04.020Z,27.90
2018-06-16T11:26:32.677Z,27.90
2018-06-16T11:29:00.901Z,27.70
2018-06-16T11:31:29.159Z,27.70
2018-06-16T11:33:57.423Z,27.90
2018-06-16T11:36:25.692Z,28.10
2018-06-16T11:38:53.960Z,28.00
2018-06-16T11:41:22.991Z,27.60
2018-06-16T11:43:51.251Z,27.60
2018-06-16T11:46:19.516Z,27.80
2018-06-16T11:48:47.846Z,28.10
2018-06-16T11:51:16.049Z,28.20
2018-06-16T11:53:44.427Z,28.30
2018-06-16T11:56:12.644Z,28.40
2018-06-16T11:58:40.903Z,28.40
2018-06-16T12:01:09.173Z,28.60
2018-06-16T12:03:37.443Z,28.70
2018-06-16T12:06:05.717Z,28.80
2018-06-16T12:08:34.737Z,28.80
2018-06-16T12:11:03.189Z,28.80
2018-06-16T12:13:32.195Z,28.30
2018-06-16T12:16:00.580Z,28.30
2018-06-16T12:18:28.845Z,28.30
2018-06-16T12:20:57.092Z,28.40
2018-06-16T12:23:26.118Z,28.80
2018-06-16T12:25:54.392Z,28.80
2018-06-16T12:28:22.641Z,28.90
2018-06-16T12:30:50.892Z,28.90
2018-06-16T12:33:19.943Z,28.70
2018-06-16T12:35:48.352Z,28.70
2018-06-16T12:38:16.607Z,28.70
2018-06-16T12:40:44.847Z,28.40
2018-06-16T12:43:13.107Z,28.40
2018-06-16T12:45:41.358Z,28.60
2018-06-16T12:48:09.828Z,28.70
2018-06-16T12:50:38.079Z,28.50
2018-06-16T12:53:06.331Z,28.60
2018-06-16T12:55:34.610Z,28.60
2018-06-16T12:58:02.860Z,28.70
2018-06-16T13:00:31.113Z,28.70
2018-06-16T13:02:59.400Z,28.70
2018-06-16T13:20:48.254Z,28.90
2018-06-16T13:26:26.794Z,29.10
2018-06-16T13:28:55.031Z,29.00
2018-06-16T13:31:23.431Z,29.00
2018-06-16T13:33:51.684Z,28.90
2018-06-16T13:36:19.943Z,28.90
2018-06-16T13:38:48.223Z,28.80
2018-06-16T13:41:16.472Z,28.80
2018-06-16T13:43:45.501Z,28.90
2018-06-16T13:46:13.779Z,28.90
2018-06-16T13:48:42.039Z,29.00
2018-06-16T13:51:10.296Z,28.90
2018-06-16T13:53:38.551Z,28.80
2018-06-16T13:56:07.562Z,28.70
2018-06-16T13:58:36.570Z,28.70
2018-06-16T14:01:04.850Z,28.70
2018-06-16T14:03:33.099Z,28.40
2018-06-16T14:06:02.114Z,28.40
2018-06-16T14:08:30.350Z,28.40
2018-06-16T14:10:58.611Z,28.20
2018-06-16T14:13:26.866Z,28.30
2018-06-16T14:15:55.413Z,28.60
2018-06-16T14:18:23.660Z,29.00
2018-06-16T14:20:51.899Z,29.40
2018-06-16T14:23:20.170Z,29.50
2018-06-16T14:25:48.443Z,29.60
2018-06-16T14:28:16.664Z,29.70
2018-06-16T14:30:44.915Z,29.80
2018-06-16T14:33:13.159Z,29.90
2018-06-16T14:35:41.447Z,29.90
2018-06-16T14:38:09.720Z,30.00
2018-06-16T14:40:38.742Z,29.80
2018-06-16T14:43:07.006Z,29.90
2018-06-16T14:45:35.257Z,29.90
2018-06-16T14:48:03.807Z,30.00
2018-06-16T14:50:32.052Z,29.90
2018-06-16T14:53:00.293Z,30.00
2018-06-16T14:55:28.558Z,30.00
2018-06-16T14:57:56.801Z,30.10
2018-06-16T15:00:25.070Z,30.10
2018-06-16T15:02:54.071Z,29.70
2018-06-16T15:05:22.337Z,29.70
2018-06-16T15:07:51.392Z,29.50
2018-06-16T15:10:20.393Z,29.70
2018-06-16T15:12:48.642Z,29.60
2018-06-16T15:15:16.889Z,29.70
2018-06-16T15:17:45.132Z,29.90
2018-06-16T15:20:14.226Z,29.90
2018-06-16T15:22:42.430Z,29.90
2018-06-16T15:25:10.694Z,29.90
2018-06-16T15:27:38.950Z,29.90
2018-06-16T15:30:07.222Z,30.00
2018-06-16T15:32:35.478Z,29.90
2018-06-16T15:35:03.731Z,30.00
2018-06-16T15:37:31.995Z,29.90
2018-06-16T15:40:00.237Z,29.70
2018-06-16T15:42:29.266Z,29.90
2018-06-16T15:44:57.622Z,29.90
2018-06-16T15:47:25.884Z,29.80
2018-06-16T15:49:54.893Z,29.70
2018-06-16T15:52:23.154Z,29.70
2018-06-16T15:54:51.432Z,29.80
2018-06-16T15:57:19.647Z,29.70
2018-06-16T15:59:47.923Z,29.70
2018-06-16T16:02:16.233Z,29.80
2018-06-16T16:04:44.437Z,29.80
2018-06-16T16:07:12.926Z,29.80
2018-06-16T16:09:41.162Z,29.90
2018-06-16T16:12:10.163Z,30.10
2018-06-16T16:14:39.190Z,30.20
2018-06-16T16:17:07.435Z,30.20
2018-06-16T16:19:36.561Z,30.10
2018-06-16T16:22:04.806Z,30.10
2018-06-16T16:24:33.806Z,30.20
2018-06-16T16:27:02.068Z,30.20
2018-06-16T16:29:31.076Z,30.10
2018-06-16T16:31:59.330Z,30.10
2018-06-16T16:34:28.343Z,29.90
2018-06-16T16:36:56.600Z,29.90
2018-06-16T16:39:25.620Z,29.80
2018-06-16T16:41:53.860Z,29.80
2018-06-16T16:44:22.109Z,29.50
2018-06-16T16:46:50.511Z,29.30
2018-06-16T16:49:18.765Z,29.10
2018-06-16T16:51:47.083Z,29.20
2018-06-16T16:54:16.098Z,29.40
2018-06-16T16:56:44.342Z,29.50
2018-06-16T16:59:13.363Z,29.50
2018-06-16T17:01:41.599Z,29.50
2018-06-16T17:04:10.618Z,29.40
2018-06-16T17:06:39.635Z,29.30
2018-06-16T17:09:07.886Z,29.30
2018-06-16T17:11:36.124Z,28.90
2018-06-16T17:14:04.376Z,28.70
2018-06-16T17:16:32.695Z,28.60
2018-06-16T17:19:01.712Z,28.70
2018-06-16T17:21:29.954Z,28.70
2018-06-16T17:23:58.966Z,28.50
2018-06-16T17:26:27.221Z,28.40
2018-06-16T17:28:56.233Z,28.40
2018-06-16T17:31:24.481Z,28.40
2018-06-16T17:33:52.729Z,28.30
2018-06-16T17:36:21.008Z,28.50
2018-06-16T17:38:49.386Z,28.50
2018-06-16T17:41:17.830Z,28.40
2018-06-16T17:43:46.075Z,28.40
2018-06-16T17:46:15.083Z,28.30
2018-06-16T17:48:44.097Z,28.40
2018-06-16T17:51:12.543Z,28.30
2018-06-16T17:53:40.724Z,28.20
2018-06-16T17:56:08.964Z,28.00
2018-06-16T17:58:37.215Z,28.10
2018-06-16T18:01:05.455Z,28.20
2018-06-16T18:03:33.716Z,28.20
2018-06-16T18:06:02.717Z,28.10
2018-06-16T18:08:30.974Z,28.10
2018-06-16T18:10:59.982Z,28.00
2018-06-16T18:13:28.442Z,28.00
2018-06-16T18:15:57.459Z,28.20
2018-06-16T18:18:25.704Z,28.10
2018-06-16T18:20:53.958Z,28.20
2018-06-16T18:23:22.201Z,28.20
2018-06-16T18:25:50.466Z,28.20
2018-06-16T18:28:18.722Z,28.20
2018-06-16T18:30:47.750Z,28.10
2018-06-16T18:33:16.010Z,28.10
2018-06-16T18:35:44.246Z,28.10
2018-06-16T18:38:13.396Z,28.00
2018-06-16T18:40:41.640Z,27.90
2018-06-16T18:43:10.699Z,27.90
2018-06-16T18:45:39.002Z,27.90
2018-06-16T18:48:07.998Z,27.60
2018-06-16T18:50:36.467Z,27.60
2018-06-16T18:53:05.473Z,27.20
2018-06-16T18:55:33.711Z,27.20
2018-06-16T18:58:01.982Z,27.00
2018-06-16T19:00:30.219Z,27.00
2018-06-16T19:02:58.480Z,26.80
2018-06-16T19:05:26.723Z,26.70
2018-06-16T19:07:55.735Z,26.40
2018-06-16T19:10:24.758Z,26.30
2018-06-16T19:12:52.994Z,26.30
2018-06-16T19:15:22.015Z,26.10
2018-06-16T19:17:50.249Z,26.10
2018-06-16T19:20:19.885Z,25.90
2018-06-16T19:22:48.142Z,25.80
2018-06-16T19:25:17.166Z,25.40
2018-06-16T19:27:45.422Z,25.40
2018-06-16T19:30:13.691Z,25.30
2018-06-16T19:32:42.698Z,24.90
2018-06-16T19:35:10.941Z,24.90
2018-06-16T19:37:39.211Z,24.90
2018-06-16T19:40:07.450Z,24.80
2018-06-16T19:42:35.705Z,24.60
2018-06-16T19:45:03.944Z,24.60
2018-06-16T19:47:32.961Z,24.30
2018-06-16T19:50:01.229Z,24.30
2018-06-16T19:52:30.239Z,24.10
2018-06-16T19:54:58.482Z,24.10
2018-06-16T19:57:27.503Z,24.00
2018-06-16T19:59:55.747Z,24.00
2018-06-16T20:02:24.003Z,24.00
2018-06-16T20:04:52.244Z,23.90
2018-06-16T20:07:20.500Z,23.80
2018-06-16T20:09:48.884Z,23.80
2018-06-16T20:12:17.104Z,23.60
2018-06-16T20:14:45.352Z,23.50
2018-06-16T20:17:13.606Z,23.30
2018-06-16T20:19:41.863Z,23.30
2018-06-16T20:22:11.087Z,23.00
2018-06-16T20:24:39.330Z,23.00
2018-06-16T20:27:08.340Z,22.90
2018-06-16T20:29:36.623Z,22.90
2018-06-16T20:32:05.604Z,22.70
2018-06-16T20:34:33.883Z,22.70
2018-06-16T20:37:02.154Z,22.70
2018-06-16T20:39:30.407Z,22.70
2018-06-16T20:41:58.796Z,22.60
2018-06-16T20:44:27.830Z,22.60
2018-06-16T20:46:56.072Z,22.60
2018-06-16T20:49:24.327Z,22.60
2018-06-16T20:51:53.344Z,22.60
2018-06-16T20:54:21.581Z,22.50
2018-06-16T20:56:49.854Z,22.60
2018-06-16T20:59:18.096Z,22.60
2018-06-16T21:01:46.335Z,22.50
2018-06-16T21:04:14.588Z,22.40
2018-06-16T21:06:43.606Z,22.30
2018-06-16T21:09:11.887Z,22.20
2018-06-16T21:11:40.151Z,22.20
2018-06-16T21:14:09.163Z,22.00
2018-06-16T21:16:37.408Z,22.00
2018-06-16T21:19:06.446Z,22.00
2018-06-16T21:21:34.722Z,22.00
2018-06-16T21:24:03.173Z,22.00
2018-06-16T21:26:32.168Z,21.90
2018-06-16T21:29:00.411Z,21.90
2018-06-16T21:31:29.450Z,22.10
2018-06-16T21:33:57.699Z,22.10
2018-06-16T21:36:25.937Z,22.00
2018-06-16T21:38:54.194Z,22.10
2018-06-16T21:41:22.444Z,22.30
2018-06-16T21:43:50.678Z,22.40
2018-06-16T21:46:19.773Z,21.90
2018-06-16T21:48:48.044Z,21.80
2018-06-16T21:51:16.279Z,21.70
2018-06-16T21:53:44.537Z,21.70
2018-06-16T21:56:12.796Z,21.60
2018-06-16T21:58:41.047Z,21.50
2018-06-16T22:01:10.076Z,21.60
2018-06-16T22:03:38.335Z,21.60
2018-06-16T22:06:06.583Z,21.50
2018-06-16T22:08:35.051Z,21.50
2018-06-16T22:11:03.282Z,21.40
2018-06-16T22:13:31.530Z,21.40
2018-06-16T22:16:00.538Z,21.50
2018-06-16T22:18:28.819Z,21.40
2018-06-16T22:20:57.107Z,21.40
2018-06-16T22:23:25.343Z,21.40
2018-06-16T22:25:54.358Z,21.50
2018-06-16T22:28:22.617Z,21.50
2018-06-16T22:30:50.865Z,21.60
2018-06-16T22:33:19.130Z,21.70
2018-06-16T22:35:47.369Z,21.80
2018-06-16T22:38:15.634Z,21.90
2018-06-16T22:40:43.870Z,21.90
2018-06-16T22:43:13.044Z,21.90
2018-06-16T22:45:41.280Z,21.90
2018-06-16T22:48:09.526Z,21.80
2018-06-16T22:50:38.545Z,21.70
2018-06-16T22:53:06.876Z,21.70
2018-06-16T22:55:35.123Z,21.70
2018-06-16T22:58:03.363Z,21.70
2018-06-16T23:00:31.605Z,21.70
2018-06-16T23:03:00.644Z,21.70
2018-06-16T23:05:28.891Z,21.70
2018-06-16T23:07:58.126Z,21.60
2018-06-16T23:10:26.368Z,21.60
2018-06-16T23:12:55.367Z,21.60
2018-06-16T23:15:23.619Z,21.50
2018-06-16T23:17:52.634Z,21.50
2018-06-16T23:20:20.893Z,21.50
2018-06-16T23:22:49.909Z,21.60
2018-06-16T23:25:18.157Z,21.60
2018-06-16T23:27:47.180Z,21.80
2018-06-16T23:30:15.422Z,21.80
2018-06-16T23:32:44.451Z,21.90
2018-06-16T23:35:12.687Z,21.80
2018-06-16T23:37:41.718Z,21.90
2018-06-16T23:40:09.958Z,21.90
2018-06-16T23:42:38.964Z,22.00
2018-06-16T23:45:07.234Z,22.00
2018-06-16T23:47:36.240Z,21.90
2018-06-16T23:50:04.499Z,21.90
2018-06-16T23:52:33.506Z,21.90
2018-06-16T23:55:01.762Z,21.90
2018-06-16T23:57:30.771Z,22.00
2018-06-16T23:59:59.015Z,22.00
